オウル の空港の天気 - METARとTAF

オウル空港 ( EFOU / OUL ) - フィンランド Oulunsalo
飛行場実況気象(Metar)
観測時間09/25 04:50 EEST (09/25 01:50 UTC)
風向・風速北北西 3m/s
視程10km以上
天気現象
少しの雲 雲底高度 1220m
気温6℃
湿度52%
気圧1009hPa
METAREFOU 250150Z AUTO 33006KT 9999 FEW040/// 06/M03 Q1009
過去の天気等 Google飛行場航空写真 Wunderground天気予報

過去48時間のMETAR

飛行場予報(TAF)
発表時間: 9/25 02:23 EEST (9/24 23:23 UTC)
予報対象時間: 25日3時 EEST ~ 26日3時 EEST
風向・風速北北西 5m/s
視程10km以上
なし
25日12時 EEST ~ 25日14時 EEST に徐々に
風向・風速西南西 5m/s
25日18時 EEST ~ 25日24時 EEST に一時的に
天気現象しゅう雨
全天の8割程度の積乱雲 雲底高度 910m
TAF EFOU 242323Z 2500/2524 33009KT CAVOK
BECMG 2509/2511 24010KT
TEMPO 2515/2521 SHRA BKN030CB